createdAt,value
2018-06-16T00:00:29.810Z,16.60
2018-06-16T00:03:04.069Z,16.50
2018-06-16T00:05:39.008Z,16.50
2018-06-16T00:08:13.304Z,16.40
2018-06-16T00:10:47.484Z,16.40
2018-06-16T00:13:21.718Z,16.40
2018-06-16T00:15:56.018Z,16.40
2018-06-16T00:18:30.163Z,16.30
2018-06-16T00:21:04.308Z,16.30
2018-06-16T00:23:38.583Z,16.30
2018-06-16T00:26:12.903Z,16.20
2018-06-16T00:28:47.057Z,16.20
2018-06-16T00:31:21.187Z,16.20
2018-06-16T00:33:55.535Z,16.10
2018-06-16T00:36:29.817Z,16.00
2018-06-16T00:39:04.167Z,15.90
2018-06-16T00:41:38.307Z,15.80
2018-06-16T00:44:12.651Z,15.80
2018-06-16T00:46:47.623Z,15.70
2018-06-16T00:49:21.913Z,15.70
2018-06-16T00:51:56.123Z,15.70
2018-06-16T00:54:30.473Z,15.70
2018-06-16T01:00:09.596Z,15.40
2018-06-16T01:02:43.873Z,15.30
2018-06-16T01:05:18.230Z,15.20
2018-06-16T01:07:53.203Z,15.20
2018-06-16T01:10:28.283Z,15.20
2018-06-16T01:13:02.588Z,15.20
2018-06-16T01:15:36.837Z,15.20
2018-06-16T01:18:11.079Z,15.10
2018-06-16T01:20:45.284Z,15.10
2018-06-16T01:23:19.562Z,15.10
2018-06-16T01:25:53.771Z,15.10
2018-06-16T01:28:28.870Z,15.00
2018-06-16T01:31:03.166Z,15.00
2018-06-16T01:33:37.450Z,15.00
2018-06-16T01:36:11.561Z,14.90
2018-06-16T01:38:45.800Z,14.90
2018-06-16T01:41:20.100Z,14.80
2018-06-16T01:43:54.437Z,14.80
2018-06-16T01:46:29.478Z,14.60
2018-06-16T01:49:03.685Z,14.60
2018-06-16T01:51:37.960Z,14.60
2018-06-16T01:54:12.321Z,14.60
2018-06-16T01:56:46.495Z,14.60
2018-06-16T01:59:20.705Z,14.50
2018-06-16T02:01:54.918Z,14.40
2018-06-16T02:04:29.084Z,14.40
2018-06-16T02:07:03.431Z,14.30
2018-06-16T02:09:37.608Z,14.30
2018-06-16T02:12:11.796Z,14.30
2018-06-16T02:14:46.068Z,14.20
2018-06-16T02:17:20.288Z,14.20
2018-06-16T02:19:54.426Z,14.10
2018-06-16T02:22:28.733Z,14.10
2018-06-16T02:25:02.906Z,14.10
2018-06-16T02:27:37.222Z,14.10
2018-06-16T02:30:11.420Z,14.00
2018-06-16T02:32:45.806Z,14.10
2018-06-16T02:35:19.949Z,14.00
2018-06-16T02:37:54.255Z,14.00
2018-06-16T02:40:28.427Z,14.00
2018-06-16T02:43:03.460Z,14.00
2018-06-16T02:45:37.672Z,13.90
2018-06-16T02:48:11.943Z,13.90
2018-06-16T02:50:46.098Z,13.90
2018-06-16T02:53:20.276Z,13.90
2018-06-16T02:55:54.398Z,13.70
2018-06-16T02:58:28.723Z,13.70
2018-06-16T03:01:02.952Z,13.60
2018-06-16T03:03:37.274Z,13.60
2018-06-16T03:06:11.572Z,13.50
2018-06-16T03:08:45.828Z,13.50
2018-06-16T03:11:20.904Z,13.40
2018-06-16T03:13:55.235Z,13.40
2018-06-16T03:16:29.586Z,13.40
2018-06-16T03:19:03.836Z,13.40
2018-06-16T03:21:38.146Z,13.40
2018-06-16T03:24:13.057Z,13.30
2018-06-16T03:26:47.240Z,13.30
2018-06-16T03:29:21.500Z,13.30
2018-06-16T03:31:55.845Z,13.30
2018-06-16T03:34:29.983Z,13.30
2018-06-16T03:37:04.284Z,13.30
2018-06-16T03:39:38.466Z,13.30
2018-06-16T03:42:12.641Z,13.30
2018-06-16T03:44:46.973Z,13.40
2018-06-16T03:47:21.172Z,13.30
2018-06-16T03:49:55.323Z,13.30
2018-06-16T03:52:29.631Z,13.30
2018-06-16T03:55:03.940Z,13.30
2018-06-16T03:57:38.119Z,13.30
2018-06-16T04:00:12.415Z,13.30
2018-06-16T04:02:46.769Z,13.30
2018-06-16T04:05:21.006Z,13.30
2018-06-16T04:07:56.127Z,13.30
2018-06-16T04:10:30.387Z,13.30
2018-06-16T04:13:04.753Z,13.40
2018-06-16T04:15:38.885Z,13.40
2018-06-16T04:18:13.137Z,13.40
2018-06-16T04:20:47.255Z,13.40
2018-06-16T04:23:21.653Z,13.40
2018-06-16T04:25:56.661Z,13.50
2018-06-16T04:28:31.006Z,13.50
2018-06-16T04:31:05.151Z,13.60
2018-06-16T04:33:39.409Z,13.60
2018-06-16T04:36:13.599Z,13.60
2018-06-16T04:38:47.735Z,13.70
2018-06-16T04:41:22.085Z,13.80
2018-06-16T04:43:56.459Z,13.80
2018-06-16T04:46:30.679Z,13.80
2018-06-16T04:49:04.888Z,13.90
2018-06-16T04:51:39.053Z,13.90
2018-06-16T04:54:13.317Z,14.00
2018-06-16T04:56:47.677Z,14.10
2018-06-16T04:59:22.591Z,14.20
2018-06-16T05:01:56.899Z,14.20
2018-06-16T05:04:31.013Z,14.30
2018-06-16T05:07:06.075Z,14.50
2018-06-16T05:09:41.153Z,14.60
2018-06-16T05:12:15.326Z,14.60
2018-06-16T05:14:49.444Z,14.70
2018-06-16T05:17:24.272Z,14.80
2018-06-16T05:19:58.529Z,14.90
2018-06-16T05:22:32.879Z,14.90
2018-06-16T05:25:07.790Z,15.10
2018-06-16T05:27:42.013Z,15.10
2018-06-16T05:30:16.234Z,15.20
2018-06-16T05:32:50.448Z,15.30
2018-06-16T05:35:24.586Z,15.40
2018-06-16T05:37:58.766Z,15.50
2018-06-16T05:40:33.096Z,15.60
2018-06-16T05:43:07.409Z,15.70
2018-06-16T05:45:41.640Z,15.90
2018-06-16T05:48:15.796Z,16.00
2018-06-16T05:50:49.930Z,16.10
2018-06-16T05:53:24.292Z,16.20
2018-06-16T05:55:58.457Z,16.30
2018-06-16T05:58:32.838Z,16.40
2018-06-16T06:01:06.934Z,16.50
2018-06-16T06:03:41.250Z,16.60
2018-06-16T06:06:15.594Z,16.70
2018-06-16T06:08:50.658Z,17.00
2018-06-16T06:11:24.924Z,16.90
2018-06-16T06:13:59.143Z,17.00
2018-06-16T06:16:33.692Z,17.10
2018-06-16T06:19:07.840Z,17.20
2018-06-16T06:21:42.797Z,17.40
2018-06-16T06:24:17.127Z,17.40
2018-06-16T06:26:51.346Z,17.50
2018-06-16T06:29:25.683Z,17.60
2018-06-16T06:31:59.935Z,17.70
2018-06-16T06:34:34.210Z,17.90
2018-06-16T06:37:09.209Z,18.10
2018-06-16T06:39:44.046Z,18.20
2018-06-16T06:42:18.256Z,18.10
2018-06-16T06:44:52.427Z,18.30
2018-06-16T06:47:26.682Z,18.40
2018-06-16T06:50:00.846Z,18.40
2018-06-16T06:52:35.066Z,18.50
2018-06-16T06:55:09.285Z,18.60
2018-06-16T06:57:43.604Z,18.70
2018-06-16T07:00:17.837Z,18.80
2018-06-16T07:02:51.983Z,18.90
2018-06-16T07:05:27.086Z,19.10
2018-06-16T07:08:02.104Z,19.20
2018-06-16T07:10:37.114Z,19.30
2018-06-16T07:13:12.092Z,19.40
2018-06-16T07:15:46.237Z,19.40
2018-06-16T07:18:20.502Z,19.50
2018-06-16T07:20:54.674Z,19.60
2018-06-16T07:23:29.538Z,19.60
2018-06-16T07:26:04.632Z,19.60
2018-06-16T07:28:38.905Z,19.60
2018-06-16T07:31:13.203Z,19.80
2018-06-16T07:33:47.411Z,19.90
2018-06-16T07:36:21.650Z,19.90
2018-06-16T07:38:55.831Z,20.10
2018-06-16T07:41:30.159Z,20.20
2018-06-16T07:44:04.309Z,20.30
2018-06-16T07:46:39.245Z,20.60
2018-06-16T07:49:13.379Z,20.50
2018-06-16T07:51:47.617Z,20.70
2018-06-16T07:54:21.977Z,20.70
2018-06-16T07:56:56.318Z,20.90
2018-06-16T07:59:31.275Z,20.80
2018-06-16T08:02:05.533Z,20.80
2018-06-16T08:04:40.531Z,21.10
2018-06-16T08:07:14.694Z,21.00
2018-06-16T08:09:48.903Z,21.10
2018-06-16T08:12:23.236Z,21.10
2018-06-16T08:14:57.398Z,21.20
2018-06-16T08:17:31.669Z,21.20
2018-06-16T08:20:05.874Z,21.40
2018-06-16T08:22:40.109Z,21.50
2018-06-16T08:25:14.309Z,21.70
2018-06-16T08:27:48.656Z,21.80
2018-06-16T08:30:22.775Z,21.80
2018-06-16T08:32:57.127Z,21.80
2018-06-16T08:35:31.312Z,21.80
2018-06-16T08:38:05.628Z,21.90
2018-06-16T08:40:39.771Z,21.90
2018-06-16T08:43:14.091Z,21.80
2018-06-16T08:45:43.051Z,22.10
2018-06-16T08:48:11.321Z,22.10
2018-06-16T08:50:40.295Z,22.30
2018-06-16T08:53:08.551Z,22.30
2018-06-16T08:55:36.886Z,22.40
2018-06-16T08:58:05.789Z,22.50
2018-06-16T09:00:34.052Z,22.50
2018-06-16T09:03:02.332Z,22.70
2018-06-16T09:05:30.528Z,22.90
2018-06-16T09:07:58.760Z,22.80
2018-06-16T09:10:26.982Z,22.90
2018-06-16T09:12:55.205Z,23.00
2018-06-16T09:15:24.238Z,23.20
2018-06-16T09:17:52.496Z,23.20
2018-06-16T09:20:21.460Z,23.10
2018-06-16T09:22:50.508Z,23.20
2018-06-16T09:25:18.718Z,23.20
2018-06-16T09:27:46.961Z,23.20
2018-06-16T09:30:16.068Z,23.20
2018-06-16T09:32:44.294Z,23.00
2018-06-16T09:35:12.541Z,23.10
2018-06-16T09:37:40.798Z,23.20
2018-06-16T09:40:09.008Z,23.30
2018-06-16T09:42:37.301Z,23.40
2018-06-16T09:45:06.312Z,23.70
2018-06-16T09:47:34.566Z,23.60
2018-06-16T09:50:03.554Z,23.70
2018-06-16T09:52:32.588Z,23.70
2018-06-16T09:55:00.817Z,23.60
2018-06-16T09:57:29.080Z,23.70
2018-06-16T09:59:57.282Z,23.60
2018-06-16T10:02:26.322Z,23.70
2018-06-16T10:04:54.532Z,23.60
2018-06-16T10:07:22.803Z,23.80
2018-06-16T10:09:51.070Z,24.00
2018-06-16T10:12:19.280Z,24.10
2018-06-16T10:14:48.256Z,24.30
2018-06-16T10:17:16.503Z,24.30
2018-06-16T10:19:44.744Z,24.40
2018-06-16T10:22:13.016Z,24.50
2018-06-16T10:24:42.059Z,24.60
2018-06-16T10:27:10.312Z,24.60
2018-06-16T10:29:38.581Z,24.60
2018-06-16T10:32:06.843Z,24.70
2018-06-16T10:34:35.844Z,24.80
2018-06-16T10:37:04.056Z,24.80
2018-06-16T10:39:32.328Z,24.80
2018-06-16T10:42:00.570Z,24.90
2018-06-16T10:44:28.799Z,25.00
2018-06-16T10:46:57.056Z,25.20
2018-06-16T10:49:25.291Z,25.10
2018-06-16T10:51:54.337Z,24.90
2018-06-16T10:54:22.593Z,24.90
2018-06-16T10:56:50.837Z,24.90
2018-06-16T10:59:19.829Z,25.20
2018-06-16T11:01:48.849Z,25.40
2018-06-16T11:04:17.110Z,25.30
2018-06-16T11:06:46.080Z,25.50
2018-06-16T11:09:14.311Z,25.40
2018-06-16T11:11:42.521Z,25.50
2018-06-16T11:14:10.741Z,25.30
2018-06-16T11:16:38.985Z,25.50
2018-06-16T11:19:07.285Z,25.50
2018-06-16T11:21:36.253Z,25.50
2018-06-16T11:24:04.517Z,25.50
2018-06-16T11:26:32.718Z,25.40
2018-06-16T11:29:01.708Z,25.60
2018-06-16T11:31:30.727Z,25.80
2018-06-16T11:33:59.746Z,26.00
2018-06-16T11:36:27.957Z,26.00
2018-06-16T11:38:56.175Z,26.10
2018-06-16T11:41:24.430Z,26.00
2018-06-16T11:43:54.185Z,26.00
2018-06-16T11:46:22.392Z,25.90
2018-06-16T11:48:50.725Z,25.90
2018-06-16T11:51:18.874Z,25.70
2018-06-16T11:53:47.150Z,25.60
2018-06-16T11:56:16.130Z,25.50
2018-06-16T11:58:45.120Z,25.80
2018-06-16T12:01:14.144Z,26.00
2018-06-16T12:03:42.364Z,25.90
2018-06-16T12:06:10.625Z,26.00
2018-06-16T12:08:38.897Z,26.00
2018-06-16T12:11:07.166Z,26.30
2018-06-16T12:13:35.383Z,26.70
2018-06-16T12:16:03.586Z,26.80
2018-06-16T12:18:32.652Z,27.40
2018-06-16T12:21:00.836Z,27.40
2018-06-16T12:23:29.085Z,27.70
2018-06-16T12:25:57.310Z,28.00
2018-06-16T12:28:26.337Z,28.50
2018-06-16T12:30:55.296Z,28.50
2018-06-16T12:33:24.356Z,28.90
2018-06-16T12:35:52.544Z,28.90
2018-06-16T12:38:20.777Z,29.20
2018-06-16T12:40:49.026Z,29.40
2018-06-16T12:43:18.041Z,29.60
2018-06-16T12:45:46.280Z,29.60
2018-06-16T12:48:14.537Z,29.80
2018-06-16T12:50:42.743Z,29.80
2018-06-16T12:53:11.808Z,30.10
2018-06-16T12:55:40.050Z,30.10
2018-06-16T12:58:08.276Z,30.30
2018-06-16T13:00:36.495Z,30.40
2018-06-16T13:03:04.736Z,30.40
2018-06-16T13:05:33.756Z,30.50
2018-06-16T13:08:02.024Z,30.50
2018-06-16T13:10:31.052Z,30.90
2018-06-16T13:12:59.323Z,30.90
2018-06-16T13:15:27.530Z,31.00
2018-06-16T13:17:55.751Z,31.10
2018-06-16T13:20:24.029Z,31.30
2018-06-16T13:22:53.021Z,31.50
2018-06-16T13:25:21.233Z,31.50
2018-06-16T13:27:49.488Z,31.50
2018-06-16T13:30:17.690Z,31.60
2018-06-16T13:32:45.953Z,31.60
2018-06-16T13:35:14.193Z,31.60
2018-06-16T13:37:43.172Z,31.40
2018-06-16T13:40:11.386Z,31.40
2018-06-16T13:42:39.660Z,31.30
2018-06-16T13:45:07.867Z,31.10
2018-06-16T13:47:36.087Z,31.10
2018-06-16T13:50:05.111Z,30.90
2018-06-16T13:52:33.364Z,30.80
2018-06-16T13:55:02.405Z,30.40
2018-06-16T13:57:30.607Z,30.40
2018-06-16T13:59:58.847Z,30.40
2018-06-16T14:02:27.099Z,30.10
2018-06-16T14:04:56.093Z,29.80
2018-06-16T14:07:24.361Z,29.70
2018-06-16T14:09:52.755Z,29.80
2018-06-16T14:12:21.769Z,29.40
2018-06-16T14:14:50.103Z,29.40
2018-06-16T14:17:18.280Z,29.50
2018-06-16T14:19:46.495Z,29.50
2018-06-16T14:22:14.723Z,29.50
2018-06-16T14:24:42.995Z,29.50
2018-06-16T14:27:11.214Z,29.60
2018-06-16T14:29:39.435Z,29.50
2018-06-16T14:32:07.711Z,29.50
2018-06-16T14:34:35.987Z,29.60
2018-06-16T14:37:04.269Z,29.60
2018-06-16T14:39:32.496Z,29.60
2018-06-16T14:42:00.746Z,29.70
2018-06-16T14:44:29.769Z,29.90
2018-06-16T14:46:58.035Z,29.90
2018-06-16T14:49:27.069Z,29.80
2018-06-16T14:51:55.279Z,29.80
2018-06-16T14:54:23.563Z,29.70
2018-06-16T14:56:51.780Z,29.80
2018-06-16T14:59:20.035Z,29.90
2018-06-16T15:01:48.997Z,30.00
2018-06-16T15:04:17.289Z,29.90
2018-06-16T15:06:45.440Z,29.70
2018-06-16T15:09:13.725Z,29.60
2018-06-16T15:11:41.959Z,29.50
2018-06-16T15:14:10.174Z,29.40
2018-06-16T15:16:38.437Z,29.30
2018-06-16T15:19:06.669Z,29.20
2018-06-16T15:21:34.887Z,29.30
2018-06-16T15:24:03.151Z,29.30
2018-06-16T15:26:31.410Z,29.30
2018-06-16T15:28:59.639Z,29.10
2018-06-16T15:31:27.903Z,29.20
2018-06-16T15:33:56.187Z,29.20
2018-06-16T15:36:24.418Z,29.10
2018-06-16T15:38:52.692Z,29.10
2018-06-16T15:41:20.964Z,29.10
2018-06-16T15:43:49.237Z,29.00
2018-06-16T15:46:17.480Z,29.00
2018-06-16T15:48:45.691Z,28.90
2018-06-16T15:51:13.944Z,28.80
2018-06-16T15:53:42.161Z,28.80
2018-06-16T15:56:10.380Z,28.70
2018-06-16T15:58:38.609Z,28.70
2018-06-16T16:01:06.816Z,28.70
2018-06-16T16:03:35.086Z,28.60
2018-06-16T16:06:03.335Z,28.60
2018-06-16T16:08:31.616Z,28.50
2018-06-16T16:10:59.870Z,28.50
2018-06-16T16:13:28.902Z,28.30
2018-06-16T16:15:57.121Z,28.30
2018-06-16T16:18:25.376Z,28.20
2018-06-16T16:20:53.630Z,28.10
2018-06-16T16:23:21.853Z,28.10
2018-06-16T16:25:50.897Z,28.00
2018-06-16T16:28:19.132Z,28.00
2018-06-16T16:30:48.153Z,27.90
2018-06-16T16:33:16.406Z,27.80
2018-06-16T16:35:45.383Z,27.70
2018-06-16T16:38:13.669Z,27.70
2018-06-16T16:40:41.910Z,27.60
2018-06-16T16:43:10.123Z,27.60
2018-06-16T16:45:39.157Z,27.60
2018-06-16T16:48:07.414Z,27.50
2018-06-16T16:50:36.390Z,27.50
2018-06-16T16:53:05.382Z,27.50
2018-06-16T16:55:34.410Z,27.40
2018-06-16T16:58:02.639Z,27.40
2018-06-16T17:00:30.903Z,27.40
2018-06-16T17:02:59.105Z,27.40
2018-06-16T17:05:28.102Z,27.30
2018-06-16T17:07:56.369Z,27.30
2018-06-16T17:10:24.591Z,27.30
2018-06-16T17:12:52.820Z,27.30
2018-06-16T17:15:21.836Z,27.10
2018-06-16T17:17:50.814Z,27.10
2018-06-16T17:20:19.818Z,27.00
2018-06-16T17:22:48.843Z,26.90
2018-06-16T17:25:17.095Z,26.90
2018-06-16T17:27:46.107Z,26.80
2018-06-16T17:30:14.324Z,26.80
2018-06-16T17:32:42.581Z,26.80
2018-06-16T17:35:10.841Z,26.80
2018-06-16T17:37:39.142Z,26.80
2018-06-16T17:40:07.397Z,26.70
2018-06-16T17:42:35.657Z,26.70
2018-06-16T17:45:03.925Z,26.70
2018-06-16T17:47:32.957Z,26.60
2018-06-16T17:50:01.230Z,26.60
2018-06-16T17:52:29.431Z,26.50
2018-06-16T17:54:57.666Z,26.50
2018-06-16T17:57:25.892Z,26.50
2018-06-16T17:59:54.123Z,26.50
2018-06-16T18:02:22.391Z,26.40
2018-06-16T18:04:50.610Z,26.40
2018-06-16T18:07:18.867Z,26.30
2018-06-16T18:09:47.080Z,26.30
2018-06-16T18:12:15.316Z,26.30
2018-06-16T18:14:43.522Z,26.30
2018-06-16T18:17:11.735Z,26.30
2018-06-16T18:19:40.028Z,26.20
2018-06-16T18:22:08.226Z,26.20
2018-06-16T18:24:36.505Z,26.10
2018-06-16T18:27:04.704Z,26.10
2018-06-16T18:29:32.926Z,26.00
2018-06-16T18:32:01.143Z,26.00
2018-06-16T18:34:29.386Z,25.90
2018-06-16T18:36:57.650Z,25.90
2018-06-16T18:39:26.637Z,25.80
2018-06-16T18:41:54.856Z,25.80
2018-06-16T18:44:23.079Z,25.80
2018-06-16T18:46:52.088Z,25.70
2018-06-16T18:49:21.075Z,25.60
2018-06-16T18:51:50.122Z,25.60
2018-06-16T18:54:18.391Z,25.60
2018-06-16T18:56:46.577Z,25.60
2018-06-16T18:59:14.842Z,25.50
2018-06-16T19:01:43.048Z,25.50
2018-06-16T19:04:11.273Z,25.50
2018-06-16T19:06:39.526Z,25.40
2018-06-16T19:09:08.546Z,25.40
2018-06-16T19:11:36.772Z,25.40
2018-06-16T19:14:05.012Z,25.30
2018-06-16T19:16:33.230Z,25.30
2018-06-16T19:19:01.503Z,25.20
2018-06-16T19:21:29.753Z,25.20
2018-06-16T19:23:58.016Z,25.10
2018-06-16T19:26:26.223Z,25.10
2018-06-16T19:28:54.478Z,25.00
2018-06-16T19:31:22.699Z,24.90
2018-06-16T19:33:51.705Z,24.80
2018-06-16T19:36:20.714Z,24.70
2018-06-16T19:38:48.961Z,24.70
2018-06-16T19:41:17.949Z,24.50
2018-06-16T19:43:46.182Z,24.50
2018-06-16T19:46:14.395Z,24.50
2018-06-16T19:48:42.642Z,24.40
2018-06-16T19:51:10.853Z,24.30
2018-06-16T19:53:39.078Z,24.30
2018-06-16T19:56:07.338Z,24.30
2018-06-16T19:58:35.561Z,24.10
2018-06-16T20:01:03.776Z,24.00
2018-06-16T20:03:32.795Z,23.90
2018-06-16T20:06:01.069Z,23.90
2018-06-16T20:08:30.046Z,23.90
2018-06-16T20:10:58.314Z,23.80
2018-06-16T20:13:26.583Z,23.80
2018-06-16T20:15:54.868Z,23.80
2018-06-16T20:18:23.092Z,23.70
2018-06-16T20:20:51.345Z,23.70
2018-06-16T20:23:19.597Z,23.60
2018-06-16T20:25:48.585Z,23.50
2018-06-16T20:28:17.576Z,23.40
2018-06-16T20:30:45.830Z,23.40
2018-06-16T20:33:14.093Z,23.40
2018-06-16T20:35:42.295Z,23.30
2018-06-16T20:38:10.520Z,23.20
2018-06-16T20:40:38.798Z,23.10
2018-06-16T20:43:07.046Z,23.10
2018-06-16T20:45:35.312Z,23.00
2018-06-16T20:48:03.534Z,23.00
2018-06-16T20:50:31.789Z,22.90
2018-06-16T20:53:00.028Z,22.80
2018-06-16T20:55:28.297Z,22.80
2018-06-16T20:57:56.550Z,22.80
2018-06-16T21:00:24.824Z,22.70
2018-06-16T21:02:53.075Z,22.70
2018-06-16T21:05:21.307Z,22.60
2018-06-16T21:07:49.522Z,22.50
2018-06-16T21:10:18.513Z,22.40
2018-06-16T21:12:47.521Z,22.40
2018-06-16T21:15:15.735Z,22.40
2018-06-16T21:17:43.980Z,22.30
2018-06-16T21:20:12.282Z,22.30
2018-06-16T21:22:40.492Z,22.20
2018-06-16T21:25:08.726Z,22.20
2018-06-16T21:27:36.970Z,22.20
2018-06-16T21:30:06.015Z,22.10
2018-06-16T21:32:34.224Z,22.10
2018-06-16T21:35:03.286Z,22.10
2018-06-16T21:37:37.430Z,22.00
2018-06-16T21:40:11.665Z,22.00
2018-06-16T21:42:45.894Z,21.90
2018-06-16T21:45:20.104Z,21.80
2018-06-16T21:47:54.218Z,21.80
2018-06-16T21:50:28.408Z,21.70
2018-06-16T21:53:02.706Z,21.60
2018-06-16T21:55:36.854Z,21.50
2018-06-16T21:58:11.069Z,21.40
2018-06-16T22:00:45.256Z,21.40
2018-06-16T22:03:19.455Z,21.40
2018-06-16T22:05:53.738Z,21.30
2018-06-16T22:08:27.869Z,21.20
2018-06-16T22:11:02.191Z,21.20
2018-06-16T22:13:37.105Z,21.10
2018-06-16T22:16:12.168Z,21.00
2018-06-16T22:18:46.533Z,21.00
2018-06-16T22:21:20.717Z,21.00
2018-06-16T22:23:54.994Z,21.00
2018-06-16T22:26:29.276Z,20.90
2018-06-16T22:29:04.317Z,20.80
2018-06-16T22:31:38.485Z,20.80
2018-06-16T22:34:12.760Z,20.80
2018-06-16T22:36:46.891Z,20.70
2018-06-16T22:39:21.191Z,20.60
2018-06-16T22:41:55.365Z,20.60
2018-06-16T22:44:30.491Z,20.40
2018-06-16T22:47:04.724Z,20.30
2018-06-16T22:49:39.100Z,20.30
2018-06-16T22:52:13.290Z,20.20
2018-06-16T22:54:47.684Z,20.10
2018-06-16T22:57:21.817Z,20.10
2018-06-16T22:59:56.188Z,20.00
2018-06-16T23:02:30.389Z,20.00
2018-06-16T23:05:04.553Z,19.90
2018-06-16T23:07:38.638Z,19.90
2018-06-16T23:10:12.878Z,19.80
2018-06-16T23:12:47.162Z,19.80
2018-06-16T23:15:21.497Z,19.70
2018-06-16T23:17:55.788Z,19.50
2018-06-16T23:20:29.913Z,19.50
2018-06-16T23:23:05.073Z,19.40
2018-06-16T23:25:39.403Z,19.40
2018-06-16T23:28:13.667Z,19.40
2018-06-16T23:30:47.843Z,19.40
2018-06-16T23:33:22.009Z,19.30
2018-06-16T23:35:56.237Z,19.20
2018-06-16T23:38:30.442Z,19.20
2018-06-16T23:41:04.693Z,19.20
2018-06-16T23:43:38.872Z,19.10
2018-06-16T23:46:13.212Z,19.10
2018-06-16T23:48:47.337Z,19.10
2018-06-16T23:51:21.691Z,19.10
2018-06-16T23:53:55.904Z,19.10
2018-06-16T23:56:30.111Z,19.00
2018-06-16T23:59:04.286Z,18.90
